Terminal Aerodrome Forecast
Issued by NWS

Home | Current Version | Previous Version | Text Only | Print | Product List | Glossary On
Versions: 1 2 3 4 5 6 7 8 9 10 11 12 13 14 15 16
159
FTUS41 KBGM 252007 AAA
TAFITH
TAF AMD
KITH 252007Z 2520/2618 21005KT P6SM -SHRA SCT035 OVC080
     FM252200 24008KT P6SM OVC100
     FM260100 26005KT P6SM SCT150
     FM261500 29009KT P6SM FEW200=

USA.gov is the U.S. government's official web portal to all federal, state and local government web resources and services.